Time;durP1;ratioP1;P1;durP2;ratioP2;P2;SDS_P1;SDS_P2;PMS_P1;PMS_P2;Temp;Humidity;BMP_temperature;BMP_pressure;BME280_temperature;BME280_humidity;BME280_pressure;Samples;Min_cycle;Max_cycle;Signal;HPM_P1;HPM_P2
2022/03/17 00:00:21;;;;;;;26.53;18.73;;;;;;;;;;5043355;28;20099;-66
2022/03/17 00:02:47;;;;;;;25.90;18.60;;;;;;;;;;5040949;28;20057;-66
2022/03/17 00:05:13;;;;;;;26.67;18.60;;;;;;;;;;5037849;28;20041;-66
2022/03/17 00:07:40;;;;;;;27.53;19.07;;;;;;;;;;5041960;28;20078;-66
2022/03/17 00:10:07;;;;;;;30.40;20.53;;;;;;;;;;5040457;28;20670;-66
2022/03/17 00:12:33;;;;;;;29.50;19.33;;;;;;;;;;5043547;28;20037;-66
2022/03/17 00:14:59;;;;;;;28.57;19.53;;;;;;;;;;5039290;28;20191;-66
2022/03/17 00:17:26;;;;;;;25.17;17.63;;;;;;;;;;5040003;28;20150;-66
2022/03/17 00:19:52;;;;;;;28.50;19.07;;;;;;;;;;5038561;28;20094;-66
2022/03/17 00:22:18;;;;;;;26.13;18.00;;;;;;;;;;5042555;28;20033;-66
2022/03/17 00:24:46;;;;;;;31.00;20.57;;;;;;;;;;5040160;28;20044;-66
2022/03/17 00:27:12;;;;;;;25.77;19.10;;;;;;;;;;5038048;28;20096;-66
2022/03/17 00:29:38;;;;;;;24.23;18.27;;;;;;;;;;5039322;28;20084;-66
2022/03/17 00:32:05;;;;;;;25.43;19.00;;;;;;;;;;5039171;28;20191;-66
2022/03/17 00:34:31;;;;;;;26.37;19.23;;;;;;;;;;5041590;28;20049;-66
2022/03/17 00:36:57;;;;;;;27.07;18.60;;;;;;;;;;5039110;28;20037;-66
2022/03/17 00:39:23;;;;;;;27.77;18.70;;;;;;;;;;5041082;28;20083;-66
2022/03/17 00:41:49;;;;;;;28.10;19.83;;;;;;;;;;5039806;28;20773;-66
2022/03/17 00:44:15;;;;;;;27.77;19.17;;;;;;;;;;5041636;28;20051;-66
2022/03/17 00:46:42;;;;;;;24.00;18.33;;;;;;;;;;5039263;28;20411;-66
2022/03/17 00:49:08;;;;;;;28.63;20.63;;;;;;;;;;5041529;28;20040;-66
2022/03/17 00:51:34;;;;;;;26.27;18.73;;;;;;;;;;5037676;28;20041;-66
2022/03/17 00:54:00;;;;;;;26.30;18.47;;;;;;;;;;5039217;28;20053;-66
2022/03/17 00:56:26;;;;;;;28.47;19.27;;;;;;;;;;5040862;28;20381;-66
2022/03/17 00:58:52;;;;;;;26.87;19.13;;;;;;;;;;5034813;28;20042;-66
2022/03/17 01:01:19;;;;;;;27.53;19.27;;;;;;;;;;5035526;28;20049;-66
2022/03/17 01:03:45;;;;;;;28.93;19.03;;;;;;;;;;5042940;28;20044;-66
2022/03/17 01:06:11;;;;;;;29.73;20.57;;;;;;;;;;5044662;28;20123;-66
2022/03/17 01:08:38;;;;;;;26.30;19.07;;;;;;;;;;5038856;28;20512;-66
2022/03/17 01:11:04;;;;;;;23.93;18.77;;;;;;;;;;5038535;28;20520;-67
2022/03/17 01:13:31;;;;;;;28.47;19.57;;;;;;;;;;5041570;28;20045;-67
2022/03/17 01:15:57;;;;;;;27.80;19.23;;;;;;;;;;5048715;28;20044;-66
2022/03/17 01:18:23;;;;;;;28.83;20.17;;;;;;;;;;5047488;28;20045;-66
2022/03/17 01:20:50;;;;;;;25.97;17.73;;;;;;;;;;5048900;28;20049;-66
2022/03/17 01:23:17;;;;;;;29.00;19.40;;;;;;;;;;5048686;28;20049;-67
2022/03/17 01:25:43;;;;;;;29.00;18.97;;;;;;;;;;5048186;28;20063;-66
2022/03/17 01:28:09;;;;;;;29.67;20.13;;;;;;;;;;5048759;28;20048;-66
2022/03/17 01:30:35;;;;;;;30.07;18.63;;;;;;;;;;5048445;28;20049;-66
2022/03/17 01:33:01;;;;;;;26.03;18.77;;;;;;;;;;5048466;28;20065;-66
2022/03/17 01:35:27;;;;;;;27.70;19.90;;;;;;;;;;5048598;28;20099;-66
2022/03/17 01:37:53;;;;;;;27.63;20.10;;;;;;;;;;5048376;28;20045;-66
2022/03/17 01:40:20;;;;;;;27.03;19.93;;;;;;;;;;5048616;28;20056;-66
2022/03/17 01:42:46;;;;;;;27.80;20.60;;;;;;;;;;5048548;28;20087;-66
2022/03/17 01:45:15;;;;;;;34.53;21.23;;;;;;;;;;5048324;28;20063;-66
2022/03/17 01:47:41;;;;;;;33.73;23.27;;;;;;;;;;5048416;28;20083;-66
2022/03/17 01:50:07;;;;;;;31.33;22.67;;;;;;;;;;5067452;28;20059;-67
2022/03/17 01:52:33;;;;;;;33.40;24.00;;;;;;;;;;5051915;28;20061;-67
2022/03/17 01:55:00;;;;;;;32.20;23.10;;;;;;;;;;5051411;28;20120;-66
2022/03/17 01:57:26;;;;;;;34.17;24.13;;;;;;;;;;5052292;28;20091;-67
2022/03/17 01:59:52;;;;;;;33.33;24.27;;;;;;;;;;5051492;28;20411;-67
2022/03/17 02:02:18;;;;;;;30.97;23.50;;;;;;;;;;5052203;28;20084;-67
2022/03/17 02:04:47;;;;;;;30.73;24.17;;;;;;;;;;5051978;28;20044;-67
2022/03/17 02:07:14;;;;;;;30.00;23.23;;;;;;;;;;5052225;28;20507;-67
2022/03/17 02:09:41;;;;;;;32.70;22.63;;;;;;;;;;5051640;28;20520;-66
2022/03/17 02:14:58;;;;;;;32.33;23.77;;;;;;;;;;5051582;28;20515;-66
2022/03/17 02:17:24;;;;;;;33.13;22.30;;;;;;;;;;5051887;28;20783;-66
2022/03/17 02:19:51;;;;;;;32.73;23.83;;;;;;;;;;5051297;28;20510;-66
2022/03/17 02:22:19;;;;;;;30.50;22.27;;;;;;;;;;5051392;28;20503;-66
2022/03/17 02:27:32;;;;;;;35.63;23.90;;;;;;;;;;5051525;28;20425;-66
2022/03/17 02:29:59;;;;;;;35.10;23.93;;;;;;;;;;5051442;28;20048;-66
2022/03/17 02:32:28;;;;;;;31.97;23.50;;;;;;;;;;5051202;28;20057;-66
2022/03/17 02:34:54;;;;;;;34.50;24.07;;;;;;;;;;5051485;28;20084;-66
2022/03/17 02:37:21;;;;;;;32.27;23.77;;;;;;;;;;5051591;28;20465;-66
2022/03/17 02:39:47;;;;;;;29.60;21.90;;;;;;;;;;5051555;28;20098;-66
2022/03/17 02:42:13;;;;;;;29.30;23.20;;;;;;;;;;5051293;28;20053;-66
2022/03/17 02:44:40;;;;;;;30.57;22.33;;;;;;;;;;5050317;28;20045;-66
2022/03/17 02:47:06;;;;;;;34.00;23.87;;;;;;;;;;5051684;28;20049;-67
2022/03/17 02:49:33;;;;;;;29.63;22.07;;;;;;;;;;5051379;28;20049;-66
2022/03/17 02:52:00;;;;;;;37.67;24.27;;;;;;;;;;5050895;28;20045;-66
2022/03/17 02:54:26;;;;;;;34.60;22.97;;;;;;;;;;5050682;28;20511;-66
2022/03/17 02:56:52;;;;;;;29.70;23.30;;;;;;;;;;5049885;28;20859;-66
2022/03/17 02:59:18;;;;;;;35.67;24.27;;;;;;;;;;5050671;28;20056;-66
2022/03/17 03:01:44;;;;;;;32.70;25.23;;;;;;;;;;5049908;28;20045;-66
2022/03/17 03:04:13;;;;;;;28.97;22.80;;;;;;;;;;5051200;28;20186;-66
2022/03/17 03:06:39;;;;;;;31.60;23.43;;;;;;;;;;5049783;28;20056;-66
2022/03/17 03:09:05;;;;;;;29.83;23.53;;;;;;;;;;5050562;28;20040;-66
2022/03/17 03:11:31;;;;;;;32.00;24.53;;;;;;;;;;5050907;28;20052;-66
2022/03/17 03:13:57;;;;;;;30.60;24.20;;;;;;;;;;5050624;28;20113;-66
2022/03/17 03:16:23;;;;;;;32.17;25.53;;;;;;;;;;5050900;28;20110;-66
2022/03/17 03:18:49;;;;;;;32.50;24.40;;;;;;;;;;5050882;28;20057;-67
2022/03/17 03:21:15;;;;;;;32.33;23.67;;;;;;;;;;5049818;28;20053;-66
2022/03/17 03:23:42;;;;;;;30.17;23.90;;;;;;;;;;5050710;28;20052;-66
2022/03/17 03:26:08;;;;;;;34.63;25.57;;;;;;;;;;5050653;28;20582;-66
2022/03/17 03:28:34;;;;;;;30.73;24.57;;;;;;;;;;5050310;28;20115;-66
2022/03/17 03:31:00;;;;;;;33.33;25.70;;;;;;;;;;5050402;28;20048;-66
2022/03/17 03:33:26;;;;;;;32.57;23.63;;;;;;;;;;5050230;28;20053;-66
2022/03/17 03:38:36;;;;;;;33.87;26.17;;;;;;;;;;5050023;28;20049;-66
2022/03/17 03:41:03;;;;;;;34.70;26.23;;;;;;;;;;5050341;28;20170;-66
2022/03/17 03:43:29;;;;;;;32.83;25.30;;;;;;;;;;5050154;28;20415;-66
2022/03/17 03:45:55;;;;;;;32.60;26.00;;;;;;;;;;5050527;28;20052;-66
2022/03/17 03:48:21;;;;;;;35.73;26.97;;;;;;;;;;5049751;28;20060;-66
2022/03/17 03:50:47;;;;;;;38.33;28.23;;;;;;;;;;5050113;28;20502;-66
2022/03/17 03:53:13;;;;;;;32.03;25.47;;;;;;;;;;5050099;28;20049;-66
2022/03/17 03:55:39;;;;;;;34.43;26.87;;;;;;;;;;5048691;28;20522;-66
2022/03/17 03:58:05;;;;;;;33.80;27.53;;;;;;;;;;5050267;28;20045;-66
2022/03/17 04:00:32;;;;;;;40.37;28.37;;;;;;;;;;5049615;28;20495;-66
2022/03/17 04:02:59;;;;;;;36.33;27.80;;;;;;;;;;5049713;28;20521;-66
2022/03/17 04:05:34;;;;;;;37.40;28.03;;;;;;;;;;5050081;28;20041;-66
2022/03/17 04:08:01;;;;;;;39.40;31.47;;;;;;;;;;5049455;28;20048;-66
2022/03/17 04:10:27;;;;;;;39.90;28.57;;;;;;;;;;5049860;28;20167;-66
2022/03/17 04:12:54;;;;;;;41.03;29.87;;;;;;;;;;5049183;28;20053;-66
2022/03/17 04:15:20;;;;;;;39.57;29.43;;;;;;;;;;5049755;28;20079;-66
2022/03/17 04:17:46;;;;;;;41.07;31.67;;;;;;;;;;5049388;28;20435;-66
2022/03/17 04:20:12;;;;;;;44.97;34.00;;;;;;;;;;5049720;28;20548;-67
2022/03/17 04:22:38;;;;;;;49.63;35.10;;;;;;;;;;5048667;28;20106;-66
2022/03/17 04:25:05;;;;;;;51.40;37.27;;;;;;;;;;5048190;28;20051;-66
2022/03/17 04:27:31;;;;;;;56.93;36.47;;;;;;;;;;5048481;28;20045;-67
2022/03/17 04:29:57;;;;;;;66.40;41.00;;;;;;;;;;5048534;28;20080;-67
2022/03/17 04:32:23;;;;;;;72.67;45.20;;;;;;;;;;5046437;28;20060;-68
2022/03/17 04:34:49;;;;;;;94.10;48.47;;;;;;;;;;5048431;28;20179;-70
2022/03/17 04:37:15;;;;;;;94.17;51.87;;;;;;;;;;5048330;28;20040;-71
2022/03/17 04:39:41;;;;;;;96.33;50.50;;;;;;;;;;5048433;28;20057;-71
2022/03/17 04:42:09;;;;;;;112.90;53.63;;;;;;;;;;5048945;28;20123;-71
2022/03/17 04:44:35;;;;;;;134.53;57.57;;;;;;;;;;5049078;28;20047;-70
2022/03/17 04:47:01;;;;;;;126.83;58.70;;;;;;;;;;5049221;28;20138;-71
2022/03/17 04:49:27;;;;;;;130.47;60.47;;;;;;;;;;5048797;28;20175;-72
2022/03/17 04:51:53;;;;;;;138.10;60.97;;;;;;;;;;5049050;28;20418;-72
2022/03/17 04:54:20;;;;;;;133.47;61.83;;;;;;;;;;5064159;28;20126;-73
2022/03/17 04:56:46;;;;;;;72.03;38.43;;;;;;;;;;5064552;28;20067;-75
2022/03/17 04:59:12;;;;;;;39.70;20.27;;;;;;;;;;5048916;28;20186;-74
2022/03/17 05:01:38;;;;;;;27.17;14.50;;;;;;;;;;5063992;28;20451;-73
2022/03/17 05:04:05;;;;;;;30.90;15.20;;;;;;;;;;5047462;28;20095;-73
2022/03/17 05:06:31;;;;;;;18.43;12.13;;;;;;;;;;5048885;28;20111;-72
2022/03/17 05:08:59;;;;;;;41.87;18.60;;;;;;;;;;5048963;28;20040;-71
2022/03/17 05:11:25;;;;;;;29.10;15.30;;;;;;;;;;5049108;28;20099;-71
2022/03/17 05:13:52;;;;;;;36.77;18.37;;;;;;;;;;5048966;28;20049;-72
2022/03/17 05:16:18;;;;;;;31.00;17.60;;;;;;;;;;5048689;28;20056;-72
2022/03/17 05:18:44;;;;;;;34.80;18.10;;;;;;;;;;5048907;28;20053;-72
2022/03/17 05:21:10;;;;;;;29.00;17.03;;;;;;;;;;5049217;28;20144;-73
2022/03/17 05:23:38;;;;;;;38.63;20.10;;;;;;;;;;5049729;28;20049;-73
2022/03/17 05:26:04;;;;;;;29.80;16.70;;;;;;;;;;5052960;28;20088;-73
2022/03/17 05:28:30;;;;;;;34.83;18.80;;;;;;;;;;5052893;28;20044;-73
2022/03/17 05:30:57;;;;;;;31.63;17.40;;;;;;;;;;5052693;28;20137;-73
2022/03/17 05:33:23;;;;;;;30.23;17.53;;;;;;;;;;5050952;28;20118;-73
2022/03/17 05:35:49;;;;;;;46.13;22.20;;;;;;;;;;5052625;28;20057;-74
2022/03/17 05:38:15;;;;;;;35.60;19.43;;;;;;;;;;5052245;28;20072;-74
2022/03/17 05:40:41;;;;;;;27.97;18.07;;;;;;;;;;5052749;28;20479;-73
2022/03/17 05:43:08;;;;;;;33.13;19.50;;;;;;;;;;5050785;28;20041;-73
2022/03/17 05:45:35;;;;;;;31.10;17.57;;;;;;;;;;5051952;28;20052;-73
2022/03/17 05:48:02;;;;;;;28.10;16.50;;;;;;;;;;5052648;28;20049;-73
2022/03/17 05:50:29;;;;;;;38.40;19.60;;;;;;;;;;5052300;28;20056;-73
2022/03/17 05:52:55;;;;;;;40.53;20.10;;;;;;;;;;5051976;28;20114;-72
2022/03/17 05:55:22;;;;;;;36.03;19.30;;;;;;;;;;5052109;28;20052;-72
2022/03/17 05:57:49;;;;;;;36.03;19.67;;;;;;;;;;5051047;28;20533;-72
2022/03/17 06:00:17;;;;;;;35.43;18.33;;;;;;;;;;5052045;28;20415;-72
2022/03/17 06:02:43;;;;;;;28.40;16.33;;;;;;;;;;5051789;28;20075;-72
2022/03/17 06:05:11;;;;;;;32.13;16.47;;;;;;;;;;5051369;28;20056;-72
2022/03/17 06:07:37;;;;;;;36.27;17.87;;;;;;;;;;5051348;28;20045;-72
2022/03/17 06:10:05;;;;;;;33.43;18.07;;;;;;;;;;5051584;28;20064;-72
2022/03/17 06:12:31;;;;;;;31.37;16.33;;;;;;;;;;5051367;28;20052;-71
2022/03/17 06:14:57;;;;;;;33.83;15.53;;;;;;;;;;5050209;28;20565;-71
2022/03/17 06:17:24;;;;;;;20.37;11.93;;;;;;;;;;5051492;28;20491;-71
2022/03/17 06:19:50;;;;;;;29.27;13.30;;;;;;;;;;5051858;28;20392;-71
2022/03/17 06:22:16;;;;;;;36.67;15.13;;;;;;;;;;5050497;28;20095;-71
2022/03/17 06:24:42;;;;;;;24.00;12.30;;;;;;;;;;5051528;28;20100;-71
2022/03/17 06:27:08;;;;;;;22.53;12.10;;;;;;;;;;5051360;28;20049;-71
2022/03/17 06:29:34;;;;;;;23.47;12.10;;;;;;;;;;5051100;28;20491;-71
2022/03/17 06:32:00;;;;;;;27.27;11.83;;;;;;;;;;5051458;28;20144;-71
2022/03/17 06:34:26;;;;;;;26.97;11.63;;;;;;;;;;5050811;28;20110;-71
2022/03/17 06:36:52;;;;;;;19.43;8.60;;;;;;;;;;5049943;28;20057;-71
2022/03/17 06:39:18;;;;;;;19.93;9.20;;;;;;;;;;5051469;28;20041;-70
2022/03/17 06:41:44;;;;;;;19.67;8.67;;;;;;;;;;5051047;28;20037;-70
2022/03/17 06:44:10;;;;;;;21.80;8.33;;;;;;;;;;5051423;28;20045;-70
2022/03/17 06:46:36;;;;;;;18.37;8.50;;;;;;;;;;5050707;28;20151;-71
2022/03/17 06:49:02;;;;;;;22.67;7.90;;;;;;;;;;5051258;28;20041;-70
2022/03/17 06:51:28;;;;;;;20.93;6.60;;;;;;;;;;5050607;28;20174;-70
2022/03/17 06:53:54;;;;;;;21.47;7.47;;;;;;;;;;5051062;28;20048;-70
2022/03/17 06:56:20;;;;;;;23.47;6.57;;;;;;;;;;5050515;28;20055;-70
2022/03/17 06:58:46;;;;;;;20.03;5.50;;;;;;;;;;5050875;28;20089;-70
2022/03/17 07:01:12;;;;;;;13.77;4.60;;;;;;;;;;5050495;28;20503;-70
2022/03/17 07:03:38;;;;;;;19.90;5.70;;;;;;;;;;5051062;28;20076;-70
2022/03/17 07:06:04;;;;;;;12.97;4.77;;;;;;;;;;5050928;28;20434;-70
2022/03/17 07:08:30;;;;;;;17.40;6.70;;;;;;;;;;5050363;28;20084;-70
2022/03/17 07:10:56;;;;;;;17.23;5.47;;;;;;;;;;5049055;28;20229;-70
2022/03/17 07:13:22;;;;;;;25.20;5.33;;;;;;;;;;5050413;28;20060;-71
2022/03/17 07:15:48;;;;;;;20.00;4.27;;;;;;;;;;5047409;28;20079;-70
2022/03/17 07:18:14;;;;;;;25.43;5.33;;;;;;;;;;5054452;28;20103;-70
2022/03/17 07:20:40;;;;;;;16.33;4.17;;;;;;;;;;5058723;28;20478;-71
2022/03/17 07:23:06;;;;;;;16.80;3.57;;;;;;;;;;5035504;28;20040;-70
2022/03/17 07:25:32;;;;;;;19.00;3.47;;;;;;;;;;5050126;28;20450;-70
2022/03/17 07:27:58;;;;;;;18.33;3.70;;;;;;;;;;5049956;28;20041;-70
2022/03/17 07:30:26;;;;;;;18.83;4.30;;;;;;;;;;5050475;28;20045;-70
2022/03/17 07:32:55;;;;;;;19.13;3.43;;;;;;;;;;5050808;28;20060;-70
2022/03/17 07:35:22;;;;;;;21.17;3.20;;;;;;;;;;5050673;28;20053;-71
2022/03/17 07:37:49;;;;;;;18.67;3.27;;;;;;;;;;5049137;28;20578;-70
2022/03/17 07:40:16;;;;;;;20.37;3.67;;;;;;;;;;5048549;28;20045;-70
2022/03/17 07:42:42;;;;;;;20.23;3.67;;;;;;;;;;5049347;28;20094;-70
2022/03/17 07:45:08;;;;;;;18.33;4.30;;;;;;;;;;5044540;28;20042;-70
2022/03/17 07:47:34;;;;;;;10.80;2.90;;;;;;;;;;5046535;28;20088;-70
2022/03/17 07:50:01;;;;;;;17.17;3.30;;;;;;;;;;5047320;28;20052;-70
2022/03/17 07:52:27;;;;;;;11.77;2.73;;;;;;;;;;5048391;28;20843;-69
2022/03/17 07:54:53;;;;;;;14.57;2.97;;;;;;;;;;5048773;28;20041;-69
2022/03/17 07:57:19;;;;;;;17.63;3.30;;;;;;;;;;5049075;28;20041;-69
2022/03/17 07:59:46;;;;;;;16.60;3.80;;;;;;;;;;5048611;28;20088;-70
2022/03/17 08:02:12;;;;;;;24.10;4.63;;;;;;;;;;5049296;28;20827;-70
2022/03/17 08:04:38;;;;;;;15.73;3.10;;;;;;;;;;5048782;28;20041;-70
2022/03/17 08:07:04;;;;;;;14.13;2.90;;;;;;;;;;5049401;28;20495;-69
2022/03/17 08:09:30;;;;;;;15.67;2.57;;;;;;;;;;5047024;28;20045;-69
2022/03/17 08:11:57;;;;;;;20.10;2.87;;;;;;;;;;5048569;28;20084;-69
2022/03/17 08:14:24;;;;;;;16.10;2.90;;;;;;;;;;5047886;28;20056;-69
2022/03/17 08:16:50;;;;;;;19.93;3.80;;;;;;;;;;5048849;28;20049;-69
2022/03/17 08:19:16;;;;;;;28.70;3.63;;;;;;;;;;5046606;28;20049;-70
2022/03/17 08:21:43;;;;;;;19.33;3.60;;;;;;;;;;5030579;28;20507;-70
2022/03/17 08:24:09;;;;;;;15.70;2.77;;;;;;;;;;5048573;28;20124;-69
2022/03/17 08:26:37;;;;;;;19.50;3.20;;;;;;;;;;5046782;28;20105;-69
2022/03/17 08:29:04;;;;;;;22.13;3.00;;;;;;;;;;5049073;28;20058;-69
2022/03/17 08:31:31;;;;;;;24.87;2.83;;;;;;;;;;5046624;28;20071;-69
2022/03/17 08:33:57;;;;;;;19.20;3.37;;;;;;;;;;5046033;28;20360;-69
2022/03/17 08:36:23;;;;;;;21.17;3.67;;;;;;;;;;5047623;28;20045;-69
2022/03/17 08:38:51;;;;;;;14.07;2.37;;;;;;;;;;5048642;28;20056;-69
2022/03/17 08:41:17;;;;;;;21.83;3.50;;;;;;;;;;5047555;28;20132;-69
2022/03/17 08:43:43;;;;;;;19.50;3.30;;;;;;;;;;5048422;28;20407;-69
2022/03/17 08:51:39;;;;;;;15.40;2.90;;;;;;;;;;5029322;28;20496;-69
2022/03/17 08:54:05;;;;;;;19.70;3.07;;;;;;;;;;5045011;28;20125;-69
2022/03/17 08:56:32;;;;;;;15.03;2.33;;;;;;;;;;5048465;28;20037;-69
2022/03/17 08:58:59;;;;;;;15.47;2.37;;;;;;;;;;5048909;28;20084;-69
2022/03/17 09:01:25;;;;;;;15.40;2.47;;;;;;;;;;5049493;28;20048;-69
2022/03/17 09:03:52;;;;;;;19.90;2.70;;;;;;;;;;5039219;28;20473;-69
2022/03/17 09:06:18;;;;;;;18.93;2.73;;;;;;;;;;5048337;28;20047;-69
2022/03/17 09:08:44;;;;;;;16.90;2.87;;;;;;;;;;5048734;28;20056;-69
2022/03/17 09:11:14;;;;;;;15.70;2.63;;;;;;;;;;5048493;28;20524;-69
2022/03/17 09:13:41;;;;;;;22.80;3.30;;;;;;;;;;5047986;28;20118;-69
2022/03/17 09:16:07;;;;;;;11.67;3.40;;;;;;;;;;5047334;28;20060;-69
2022/03/17 09:18:33;;;;;;;18.87;3.60;;;;;;;;;;5048046;28;20037;-69
2022/03/17 09:21:00;;;;;;;15.50;3.10;;;;;;;;;;5045904;28;20056;-69
2022/03/17 09:23:26;;;;;;;17.73;2.90;;;;;;;;;;5047356;28;20045;-69
2022/03/17 09:25:53;;;;;;;17.97;2.43;;;;;;;;;;5047676;28;20041;-69
2022/03/17 09:28:19;;;;;;;11.60;2.20;;;;;;;;;;5030558;28;20080;-69
2022/03/17 09:30:45;;;;;;;20.07;3.40;;;;;;;;;;5045959;28;20064;-69
2022/03/17 09:33:11;;;;;;;14.87;2.27;;;;;;;;;;5047466;28;20061;-69
2022/03/17 09:35:37;;;;;;;12.90;2.30;;;;;;;;;;5047286;28;20053;-69
2022/03/17 09:38:04;;;;;;;19.90;3.50;;;;;;;;;;5047484;28;20049;-69
2022/03/17 09:40:30;;;;;;;14.00;2.90;;;;;;;;;;5048211;28;20045;-69
2022/03/17 09:45:42;;;;;;;19.70;3.57;;;;;;;;;;5055318;28;20053;-69
2022/03/17 09:48:09;;;;;;;10.73;1.93;;;;;;;;;;5047635;28;20051;-69
2022/03/17 09:50:36;;;;;;;14.97;2.63;;;;;;;;;;5047327;28;20057;-69
2022/03/17 09:53:02;;;;;;;13.53;2.63;;;;;;;;;;5045259;28;20077;-69
2022/03/17 09:55:28;;;;;;;17.63;2.30;;;;;;;;;;5046847;28;20037;-69
2022/03/17 09:57:55;;;;;;;10.73;2.30;;;;;;;;;;5041181;28;20048;-69
2022/03/17 10:00:21;;;;;;;13.37;2.37;;;;;;;;;;5037623;28;20065;-69
2022/03/17 10:02:47;;;;;;;12.83;2.00;;;;;;;;;;5035943;28;20524;-69
2022/03/17 10:05:13;;;;;;;14.47;2.83;;;;;;;;;;5050366;28;20519;-68
2022/03/17 10:07:40;;;;;;;24.50;3.20;;;;;;;;;;5045289;28;20705;-70
2022/03/17 10:10:06;;;;;;;13.27;2.90;;;;;;;;;;5049568;28;20048;-68
2022/03/17 10:12:32;;;;;;;13.83;2.87;;;;;;;;;;5051139;28;20131;-69
2022/03/17 10:14:59;;;;;;;11.63;2.23;;;;;;;;;;5051226;28;20124;-69
2022/03/17 10:17:32;;;;;;;11.00;2.30;;;;;;;;;;5050312;28;20607;-69
2022/03/17 10:20:11;;;;;;;15.65;2.38;;;;;;;;;;5051695;28;20045;-69
2022/03/17 10:22:44;;;;;;;13.07;2.43;;;;;;;;;;5051495;28;20045;-69
2022/03/17 10:25:12;;;;;;;10.05;2.15;;;;;;;;;;5050770;28;20045;-69
2022/03/17 10:27:42;;;;;;;9.23;1.70;;;;;;;;;;5050889;28;20049;-69
2022/03/17 10:30:08;;;;;;;9.03;1.47;;;;;;;;;;5050533;28;20045;-69
2022/03/17 10:32:36;;;;;;;10.37;1.70;;;;;;;;;;5050981;28;20568;-69
2022/03/17 10:35:02;;;;;;;11.40;1.83;;;;;;;;;;5049011;28;20978;-69
2022/03/17 10:37:30;;;;;;;6.97;1.43;;;;;;;;;;5050584;28;20526;-69
2022/03/17 10:40:01;;;;;;;9.33;1.33;;;;;;;;;;5049929;28;20045;-69
2022/03/17 10:42:28;;;;;;;8.73;1.43;;;;;;;;;;5050026;28;20118;-69
2022/03/17 10:44:59;;;;;;;12.17;1.97;;;;;;;;;;5051189;28;20403;-69
2022/03/17 10:47:25;;;;;;;13.87;1.87;;;;;;;;;;5049559;28;20048;-69
2022/03/17 10:50:28;;;;;;;6.20;1.90;;;;;;;;;;5050399;28;20052;-69
2022/03/17 10:52:57;;;;;;;9.43;1.80;;;;;;;;;;4988306;28;20058;-69
2022/03/17 10:55:30;;;;;;;13.80;2.10;;;;;;;;;;5039577;28;20141;-70
2022/03/17 10:58:15;;;;;;;9.40;2.25;;;;;;;;;;5050566;28;20403;-69
2022/03/17 11:00:48;;;;;;;13.67;2.17;;;;;;;;;;5049921;28;20577;-69
2022/03/17 11:03:14;;;;;;;8.15;2.10;;;;;;;;;;5049478;28;20045;-69
2022/03/17 11:05:40;;;;;;;9.80;1.97;;;;;;;;;;5050686;28;20044;-69
2022/03/17 11:08:09;;;;;;;11.10;2.03;;;;;;;;;;5042151;28;20539;-69
2022/03/17 11:10:36;;;;;;;7.33;1.70;;;;;;;;;;5039343;28;20045;-69
2022/03/17 11:13:09;;;;;;;11.63;2.03;;;;;;;;;;5057262;28;20454;-68
2022/03/17 11:15:38;;;;;;;10.38;2.80;;;;;;;;;;5040221;28;20059;-69
2022/03/17 11:18:06;;;;;;;7.40;1.90;;;;;;;;;;5050074;28;20041;-69
2022/03/17 11:20:32;;;;;;;9.50;2.00;;;;;;;;;;5062337;28;20049;-70
2022/03/17 11:23:22;;;;;;;14.87;2.27;;;;;;;;;;5048022;28;20099;-70
2022/03/17 11:25:55;;;;;;;8.33;1.60;;;;;;;;;;5042633;28;20059;-68
2022/03/17 11:28:34;;;;;;;6.93;1.50;;;;;;;;;;5050673;28;20041;-69
2022/03/17 11:31:05;;;;;;;9.63;2.10;;;;;;;;;;5043992;28;20048;-70
2022/03/17 11:33:36;;;;;;;14.13;2.10;;;;;;;;;;5037132;28;20058;-68
2022/03/17 11:36:12;;;;;;;16.07;3.63;;;;;;;;;;5036753;28;20052;-70
2022/03/17 11:38:39;;;;;;;11.57;2.00;;;;;;;;;;5031440;28;20037;-70
2022/03/17 11:41:07;;;;;;;6.57;1.63;;;;;;;;;;5036136;28;20073;-70
2022/03/17 11:43:45;;;;;;;10.47;1.90;;;;;;;;;;5037224;28;20082;-70
2022/03/17 11:46:24;;;;;;;6.73;1.90;;;;;;;;;;5040286;28;20448;-70
2022/03/17 11:48:54;;;;;;;10.77;2.23;;;;;;;;;;5039890;28;20049;-70
2022/03/17 11:51:20;;;;;;;7.37;1.87;;;;;;;;;;5039330;28;20049;-70
2022/03/17 11:53:53;;;;;;;7.20;1.87;;;;;;;;;;5054118;28;20045;-70
2022/03/17 11:56:28;;;;;;;8.93;1.60;;;;;;;;;;5042744;28;20129;-70
2022/03/17 11:58:54;;;;;;;10.07;2.77;;;;;;;;;;5038959;28;20114;-70
2022/03/17 12:01:27;;;;;;;8.27;2.03;;;;;;;;;;5039018;28;20044;-70
2022/03/17 12:04:00;;;;;;;10.55;2.40;;;;;;;;;;5040762;28;20091;-70
2022/03/17 12:06:27;;;;;;;10.45;1.83;;;;;;;;;;5039754;28;20420;-70
2022/03/17 12:08:55;;;;;;;10.50;2.10;;;;;;;;;;5037313;28;20044;-70
2022/03/17 12:11:25;;;;;;;5.47;1.83;;;;;;;;;;5040184;28;20057;-70
2022/03/17 12:14:10;;;;;;;11.20;3.03;;;;;;;;;;5036830;28;20041;-71
2022/03/17 12:16:40;;;;;;;6.53;1.80;;;;;;;;;;5035811;28;20048;-70
2022/03/17 12:19:06;;;;;;;8.73;2.20;;;;;;;;;;5038822;28;20056;-71
2022/03/17 12:21:51;;;;;;;8.27;1.60;;;;;;;;;;5036942;28;20107;-70
2022/03/17 12:24:36;;;;;;;7.97;1.60;;;;;;;;;;5039525;28;20045;-71
2022/03/17 12:27:03;;;;;;;6.53;1.77;;;;;;;;;;5035767;28;20586;-70
2022/03/17 12:29:29;;;;;;;9.30;2.27;;;;;;;;;;5035334;28;20064;-71
2022/03/17 12:31:57;;;;;;;6.70;1.73;;;;;;;;;;5035444;28;20457;-70
2022/03/17 12:34:23;;;;;;;8.70;2.07;;;;;;;;;;5036232;28;20112;-70
2022/03/17 12:36:49;;;;;;;6.33;2.27;;;;;;;;;;5037834;28;20074;-70
2022/03/17 12:39:15;;;;;;;12.50;2.77;;;;;;;;;;5042498;28;20499;-69
2022/03/17 12:41:41;;;;;;;7.77;1.90;;;;;;;;;;5048955;28;20041;-71
2022/03/17 12:44:07;;;;;;;7.60;2.43;;;;;;;;;;5048971;28;20041;-71
2022/03/17 12:46:33;;;;;;;7.97;2.20;;;;;;;;;;5048117;28;20041;-71
2022/03/17 12:49:06;;;;;;;11.17;2.50;;;;;;;;;;5046939;28;20048;-71
2022/03/17 12:51:32;;;;;;;7.93;2.15;;;;;;;;;;5046723;28;20091;-71
2022/03/17 12:54:03;;;;;;;9.73;2.57;;;;;;;;;;5048233;28;20057;-71
2022/03/17 12:56:29;;;;;;;9.60;2.00;;;;;;;;;;5047910;28;20041;-70
2022/03/17 12:58:55;;;;;;;8.00;2.30;;;;;;;;;;5047916;28;20110;-70
2022/03/17 13:01:21;;;;;;;5.70;1.77;;;;;;;;;;5046889;28;20048;-70
2022/03/17 13:03:48;;;;;;;7.73;1.40;;;;;;;;;;5047920;28;20570;-70
2022/03/17 13:09:05;;;;;;;8.70;2.30;;;;;;;;;;5048175;28;20099;-70
2022/03/17 13:14:24;;;;;;;10.73;1.90;;;;;;;;;;5047814;28;20049;-70
2022/03/17 13:17:04;;;;;;;6.93;1.73;;;;;;;;;;5047614;28;20127;-70
2022/03/17 13:19:30;;;;;;;7.57;2.27;;;;;;;;;;5047695;28;20199;-70
2022/03/17 13:22:03;;;;;;;8.27;2.13;;;;;;;;;;5047809;28;20045;-70
2022/03/17 13:24:29;;;;;;;8.43;1.65;;;;;;;;;;5047232;28;20037;-70
2022/03/17 13:26:59;;;;;;;8.47;2.47;;;;;;;;;;5047437;28;20045;-70
2022/03/17 13:29:25;;;;;;;6.40;1.73;;;;;;;;;;5047358;28;20049;-70
2022/03/17 13:31:51;;;;;;;7.57;2.10;;;;;;;;;;5047436;28;20061;-70
2022/03/17 13:34:34;;;;;;;6.53;1.70;;;;;;;;;;5047721;28;20131;-70
2022/03/17 13:37:01;;;;;;;6.67;1.73;;;;;;;;;;5047023;28;20041;-71
2022/03/17 13:39:32;;;;;;;6.27;2.13;;;;;;;;;;5047158;28;20045;-70
2022/03/17 13:42:05;;;;;;;6.57;2.13;;;;;;;;;;5047477;28;20411;-70
2022/03/17 13:44:53;;;;;;;7.20;1.90;;;;;;;;;;5048260;28;20087;-70
2022/03/17 13:47:21;;;;;;;7.17;1.67;;;;;;;;;;5051052;28;20053;-70
2022/03/17 13:50:06;;;;;;;6.50;1.80;;;;;;;;;;5051259;28;20064;-70
2022/03/17 13:52:32;;;;;;;5.80;1.80;;;;;;;;;;5051274;28;20132;-70
2022/03/17 13:54:58;;;;;;;8.63;1.53;;;;;;;;;;5051318;28;20140;-70
2022/03/17 13:57:24;;;;;;;9.17;2.20;;;;;;;;;;5051038;28;20056;-70
2022/03/17 13:59:50;;;;;;;9.00;1.70;;;;;;;;;;5050595;28;20053;-70
2022/03/17 14:02:17;;;;;;;9.83;2.37;;;;;;;;;;5051146;28;20095;-70
2022/03/17 14:04:55;;;;;;;8.87;2.00;;;;;;;;;;5051091;28;20047;-70
2022/03/17 14:07:22;;;;;;;5.93;1.17;;;;;;;;;;5051240;28;20045;-70
2022/03/17 14:09:48;;;;;;;4.63;1.40;;;;;;;;;;5050689;28;20099;-70
2022/03/17 14:12:14;;;;;;;6.80;1.83;;;;;;;;;;5051026;28;20045;-70
2022/03/17 14:14:40;;;;;;;10.27;2.47;;;;;;;;;;5051067;28;20087;-70
2022/03/17 14:17:10;;;;;;;7.03;1.57;;;;;;;;;;5050825;28;20526;-71
2022/03/17 14:19:36;;;;;;;9.07;1.87;;;;;;;;;;5050935;28;20074;-70
2022/03/17 14:25:04;;;;;;;9.70;1.20;;;;;;;;;;5028338;28;20053;-70
2022/03/17 14:27:30;;;;;;;5.57;1.50;;;;;;;;;;5046199;28;20115;-70
2022/03/17 14:29:56;;;;;;;6.03;1.80;;;;;;;;;;5050997;28;20049;-70
2022/03/17 14:32:22;;;;;;;5.73;1.33;;;;;;;;;;5050488;28;20588;-70
2022/03/17 14:34:48;;;;;;;7.83;1.40;;;;;;;;;;5050156;28;20041;-70
2022/03/17 14:37:14;;;;;;;5.00;1.40;;;;;;;;;;5050089;28;20072;-70
2022/03/17 14:39:43;;;;;;;5.57;1.50;;;;;;;;;;5050461;28;20056;-70
2022/03/17 14:42:13;;;;;;;6.30;1.90;;;;;;;;;;5050262;28;20680;-70
2022/03/17 14:44:39;;;;;;;7.67;1.37;;;;;;;;;;5050805;28;20053;-70
2022/03/17 14:47:05;;;;;;;5.07;1.40;;;;;;;;;;5049876;28;20589;-70
2022/03/17 14:49:31;;;;;;;3.93;1.23;;;;;;;;;;5049933;28;20124;-70
2022/03/17 14:51:57;;;;;;;6.87;1.30;;;;;;;;;;5050148;28;20084;-70